This is the latest recevied weather packets stored in our database for station/object VK6WB. If no packets are shown the sender has not sent any weather packets the latest 10 day(s).
| Time | Temp. | Humidity | Pressure | Rain* | Wind** | Luminosity | Snow |
|---|---|---|---|---|---|---|---|
| 1778148605 | 20° C | 39% | 1023.1 hPa | 0 mm | - | 117 W/m² | - |
| 1778148004 | 20° C | 38% | 1023.1 hPa | 0 mm | - | 117 W/m² | - |
| 1778147405 | 20.56° C | 37% | 1023.1 hPa | 0 mm | - | 117 W/m² | - |
| 1778146805 | 20.56° C | 37% | 1023 hPa | 0 mm | - | 117 W/m² | - |
| 1778146205 | 21.11° C | 36% | 1022.8 hPa | 0 mm | - | 117 W/m² | - |
| 1778145605 | 21.11° C | 35% | 1022.9 hPa | 0 mm | - | 117 W/m² | - |
| 1778145004 | 21.67° C | 34% | 1022.8 hPa | 0 mm | - | 117 W/m² | - |
| 1778144405 | 22.22° C | 32% | 1022.9 hPa | 0 mm | - | 117 W/m² | - |
| 1778143804 | 22.78° C | 32% | 1022.9 hPa | 0 mm | - | 117 W/m² | - |
| 1778143205 | 22.78° C | 32% | 1022.8 hPa | 0 mm | - | 117 W/m² | - |
| 1778142605 | 22.78° C | 31% | 1023 hPa | 0 mm | - | 117 W/m² | - |
| 1778142005 | 23.33° C | 30% | 1022.9 hPa | 0 mm | - | 117 W/m² | - |
| 1778141404 | 23.33° C | 30% | 1022.9 hPa | 0 mm | - | 117 W/m² | - |
| 1778140805 | 23.33° C | 30% | 1023 hPa | 0 mm | - | 117 W/m² | - |
| 1778140205 | 23.33° C | 29% | 1022.9 hPa | 0 mm | - | 117 W/m² | - |
| 1778139604 | 23.33° C | 28% | 1023 hPa | 0 mm | - | 117 W/m² | - |
| 1778139005 | 23.33° C | 29% | 1023 hPa | 0 mm | - | 117 W/m² | - |
| 1778138405 | 23.33° C | 28% | 1023 hPa | 0 mm | - | 117 W/m² | - |
| 1778137804 | 23.89° C | 29% | 1023 hPa | 0 mm | - | 117 W/m² | - |
| 1778137205 | 23.33° C | 32% | 1023.2 hPa | 0 mm | - | 117 W/m² | - |
| 1778136604 | 23.33° C | 32% | 1023.3 hPa | 0 mm | - | 375 W/m² | - |
| 1778136004 | 23.33° C | 31% | 1023.4 hPa | 0 mm | - | 221 W/m² | - |
| 1778135405 | 23.33° C | 32% | 1023.3 hPa | 0 mm | - | 375 W/m² | - |
| 1778134804 | 22.78° C | 34% | 1023.4 hPa | 0 mm | - | 375 W/m² | - |
| 1778134204 | 22.78° C | 35% | 1023.4 hPa | 0 mm | - | 375 W/m² | - |
* Rain latest hour (hover to see other rain measurements)
** Current wind speed in m/s (hover to see current wind gust speed)